• Join FlightAware (Why Join?)
  • Login
  • US Flag 
06:18AM EDT


 

Airport Tracker/Info


-or-


 

Live Flight TrackerFlight Track Log ✈ XOJ552 ✈ 26-Jun-2013 ✈ KTEB - KOAK

Flight Track Log - Related Links

Times and Time Zones

All times are in EDT time to prevent confusion due to time zone crossing. See the XOJ552 flight status page for this flight to view local times or setup timezone preferences in your user account.

Time Position Orientation Groundspeed Altitude Reporting Facility
EDT Latitude Longitude Course Direction KTS MPH feet Rate Location/Type
12:29PM 40.8167 -74.1500 304° West 206 237 1,600  Level New York TRACON
12:30PM 40.8000 -74.2167 252° West 240 276 3,800 3,060 Climbing New York TRACON
12:31PM 40.8333 -74.2833 303° West 244 281 7,500 3,000 Climbing New York TRACON
12:32PM 40.9000 -74.3333 330° Northwest 266 306 9,900 1,920 Climbing New York TRACON
12:33PM 40.9167 -74.4167 285° West 290 334 11,400 2,340 Climbing New York TRACON
12:34PM 40.9167 -74.5333 270° West 296 341 14,600 2,700 Climbing New York TRACON
12:35PM 41.1874 -74.8248 304° West  Level FlightAware Approximate
12:35PM 40.9186 -74.6539 271° West 316 364 16,900  Level New York Center
12:36PM 40.9186 -74.7775 270° West 337 388 16,900  Level New York Center
12:37PM 40.9189 -74.8928 270° West 348 400 16,900 1,140 Level New York Center
12:38PM 40.9178 -75.0383 269° West 354 407 19,200 1,980 Climbing New York Center
12:39PM 40.9175 -75.1619 270° West 354 407 20,900 1,560 Climbing New York Center
12:40PM 40.8897 -75.2892 254° West 354 407 22,400 1,560 Climbing New York Center
12:41PM 40.8617 -75.4189 254° West 359 413 24,000 1,680 Climbing New York Center
12:42PM 40.8294 -75.5539 253° West 371 427 25,900 1,680 Climbing New York Center
12:43PM 40.7989 -75.6861 253° West 377 434 27,400 1,320 Climbing New York Center
12:44PM 40.7661 -75.8233 253° West 387 445 28,600 1,440 Climbing New York Center
12:45PM 40.7328 -75.9633 253° West 394 453 30,400 1,620 Climbing New York Center
12:46PM 40.6994 -76.1061 253° West 400 460 31,800 1,260 Climbing New York Center
12:47PM 40.7094 -76.2547 275° West 400 460 32,900 960 Climbing New York Center
12:48PM 40.7272 -76.4067 279° West 407 468 33,800 1,020 Climbing New York Center
12:49PM 40.7467 -76.5644 279° West 420 483 35,000 1,260 Climbing New York Center
12:50PM 40.7614 -76.6864 279° West 430 495 36,400 1,440 Climbing New York Center
12:51PM 40.7803 -76.8497 279° West 425 489 37,900 1,320 Climbing New York Center
12:52PM 40.7981 -76.9911 279° West 413 475 39,100 840 Climbing New York Center
12:53PM 40.8131 -77.1378 278° West 408 470 39,600 540 Climbing New York Center
12:54PM 40.8319 -77.2878 279° West 408 470 40,200 540 Climbing New York Center
12:57PM 40.8719 -77.6558 278° West 413 475 41,600 480 Climbing Cleveland Center
12:58PM 40.8881 -77.8061 278° West 408 470 42,000 360 Climbing Cleveland Center
12:59PM 40.9042 -77.9567 278° West 408 470 42,400 360 Climbing Cleveland Center
01:00PM 40.9200 -78.1017 278° West 408 470 42,800 300 Climbing Cleveland Center
01:01PM 40.9403 -78.2714 279° West 413 475 43,000 60 Climbing Cleveland Center
01:02PM 40.9556 -78.4219 278° West 413 475 43,000  Level Cleveland Center
01:03PM 40.9689 -78.5728 277° West 419 482 43,000  Level Cleveland Center
01:04PM 40.9861 -78.7236 279° West 424 488 43,000  Level Cleveland Center
01:05PM 41.0008 -78.8747 277° West 424 488 43,000  Level Cleveland Center
01:06PM 41.0133 -79.0283 276° West 424 488 43,000  Level Cleveland Center
01:07PM 41.0300 -79.1847 278° West 424 488 43,000  Level Cleveland Center
01:08PM 41.0444 -79.3361 277° West 424 488 43,000  Level Cleveland Center
01:09PM 41.0583 -79.4872 277° West 424 488 43,000  Level Cleveland Center
01:10PM 41.0722 -79.6411 277° West 424 488 43,000  Level Cleveland Center
01:11PM 41.0858 -79.7953 277° West 424 488 43,000  Level Cleveland Center
01:12PM 41.0994 -79.9522 277° West 424 488 43,000  Level Cleveland Center
01:13PM 41.1128 -80.1064 277° West 424 488 43,000  Level Cleveland Center
01:14PM 41.1278 -80.2633 277° West 424 488 43,000  Level Cleveland Center
01:15PM 41.1364 -80.4206 274° West 424 488 43,000  Level Cleveland Center
01:16PM 41.1492 -80.5750 276° West 424 488 43,000  Level Cleveland Center
01:17PM 41.1636 -80.7319 277° West 429 494 43,000  Level Cleveland Center
01:18PM 41.1736 -80.8867 275° West 429 494 43,000  Level Cleveland Center
01:19PM 41.1856 -81.0439 276° West 429 494 43,000  Level Cleveland Center
01:20PM 41.1994 -81.2014 277° West 424 488 43,000  Level Cleveland Center
01:21PM 41.2111 -81.3558 276° West 431 496 43,000  Level Cleveland Center
01:22PM 41.2267 -81.5161 277° West 431 496 43,000  Level Cleveland Center
01:23PM 41.2378 -81.6739 275° West 431 496 43,000  Level Cleveland Center
01:24PM 41.2506 -81.8342 276° West 431 496 43,000  Level Cleveland Center
01:26PM 41.2675 -82.1578 274° West 437 503 43,000  Level Cleveland Center
01:27PM 41.2778 -82.3128 275° West 443 510 43,000  Level Cleveland Center
01:28PM 41.2878 -82.4650 275° West 437 503 43,000  Level Cleveland Center
01:29PM 41.2975 -82.6256 275° West 431 496 43,000  Level Cleveland Center
01:30PM 41.3072 -82.7806 275° West 425 489 43,000  Level Cleveland Center
01:31PM 41.3167 -82.9331 275° West 425 489 43,000  Level Cleveland Center
01:32PM 41.3258 -83.0883 275° West 425 489 43,000  Level Cleveland Center
01:33PM 41.3311 -83.2267 273° West 425 489 43,000  Level Cleveland Center
01:34PM 41.3400 -83.3739 275° West 420 483 43,000  Level Cleveland Center
01:35PM 41.3486 -83.5292 274° West 420 483 43,000  Level Cleveland Center
01:36PM 41.3592 -83.6872 275° West 426 490 43,000  Level Cleveland Center
01:37PM 41.3672 -83.8425 274° West 426 490 43,000  Level Cleveland Center
01:38PM 41.3781 -83.9856 276° West 425 489 43,000  Level Chicago Center
01:39PM 41.3861 -84.1436 274° West 429 494 43,000  Level Chicago Center
01:40PM 41.3936 -84.3022 274° West 430 495 43,000  Level Chicago Center
01:41PM 41.4017 -84.4606 274° West 430 495 43,000  Level Chicago Center
01:42PM 41.4086 -84.6197 273° West 431 496 43,000  Level Chicago Center
01:43PM 41.4178 -84.8117 274° West 433 498 43,000  Level Chicago Center
01:44PM 41.4250 -84.9714 274° West 432 497 43,000  Level Chicago Center
01:45PM 41.4308 -85.1319 273° West 433 498 43,000  Level Chicago Center
01:46PM 41.4369 -85.2967 273° West 439 505 43,000  Level Chicago Center
01:47PM 41.4436 -85.4622 273° West 441 507 43,000  Level Chicago Center
01:48PM 41.4492 -85.6250 273° West 435 501 43,000  Level Chicago Center
01:49PM 41.4558 -85.7811 273° West 426 490 43,000  Level Chicago Center
01:50PM 41.4614 -85.9353 273° West 422 486 43,000  Level Chicago Center
01:51PM 41.4667 -86.1189 272° West 419 482 43,000  Level Chicago Center
01:52PM 41.4722 -86.2728 273° West 418 481 43,000  Level Chicago Center
01:53PM 41.4769 -86.4267 272° West 417 480 43,000  Level Chicago Center
01:54PM 41.4808 -86.5808 272° West 419 482 43,000  Level Chicago Center
01:55PM 41.4858 -86.7375 272° West 418 481 43,000  Level Chicago Center
01:56PM 41.4894 -86.8900 272° West 416 479 43,000  Level Chicago Center
01:57PM 41.4939 -87.0761 272° West 420 483 43,000  Level Chicago Center
01:58PM 41.4972 -87.2319 272° West 424 488 43,000  Level Chicago Center
01:59PM 41.5017 -87.3894 272° West 427 491 43,000  Level Chicago Center
02:00PM 41.5064 -87.5472 272° West 431 496 43,000  Level Chicago Center
02:01PM 41.5094 -87.7056 272° West 430 495 43,000  Level Chicago Center
02:02PM 41.5131 -87.8953 272° West 432 497 43,000  Level Chicago Center
02:03PM 41.5194 -88.0553 273° West 441 507 43,000  Level Chicago Center
02:04PM 41.5200 -88.2128 270° West 440 506 43,000  Level Chicago Center
02:06PM 41.5214 -88.4050 271° West 441 507 43,000  Level Chicago Center
02:07PM 41.5233 -88.5667 271° West 441 507 43,000  Level Chicago Center
02:08PM 41.5244 -88.7250 271° West 434 499 43,000  Level Chicago Center
02:09PM 41.5267 -88.8867 271° West 437 503 43,000  Level Chicago Center
02:10PM 41.5286 -89.0758 271° West 431 496 43,000  Level Chicago Center
02:11PM 41.5294 -89.2139 271° West 430 495 43,000  Level Chicago Center
02:12PM 41.5311 -89.3753 271° West 434 499 43,000  Level Chicago Center
02:13PM 41.5317 -89.5675 270° West 434 499 43,000  Level Chicago Center
02:14PM 41.5317 -89.7281 270° West 436 502 43,000  Level Chicago Center
02:15PM 41.5331 -89.8889 271° West 436 502 43,000  Level Chicago Center
02:16PM 41.5331 -90.0519 270° West 440 506 43,000  Level Chicago Center
02:17PM 41.5328 -90.2156 270° West 442 509 43,000  Level Chicago Center
02:18PM 41.5317 -90.4156 270° West 450 518 43,000  Level Chicago Center
02:19PM 41.5308 -90.5794 270° West 443 510 43,000  Level Chicago Center
02:20PM 41.5278 -90.7428 269° West 456 525 43,000  Level Chicago Center
02:21PM 41.5275 -90.9078 270° West 449 517 43,000  Level Chicago Center
02:22PM 41.5258 -91.0708 269° West 443 510 43,000  Level Chicago Center
02:23PM 41.5242 -91.2672 269° West 444 511 43,000  Level Chicago Center
02:24PM 41.5214 -91.4303 269° West 442 509 43,000  Level Chicago Center
02:25PM 41.5203 -91.5914 270° West 437 503 43,000  Level Chicago Center
02:26PM 41.5150 -91.7508 268° West 434 499 43,000  Level Chicago Center
02:27PM 41.5100 -91.9122 268° West 437 503 43,000  Level Chicago Center
02:28PM 41.5028 -92.1058 267° West 436 502 43,000  Level Chicago Center
02:29PM 41.4978 -92.2669 268° West 438 504 43,000  Level Chicago Center
02:30PM 41.4919 -92.4164 267° West 434 499 43,000  Level Chicago Center
02:31PM 41.4856 -92.5733 267° West 430 495 43,000  Level Chicago Center
02:33PM 41.4764 -92.7972 267° West 433 498 43,000  Level Minneapolis Center
02:34PM 41.4697 -92.9567 267° West 434 499 43,000  Level Minneapolis Center
02:35PM 41.4622 -93.1144 266° West 433 498 43,000  Level Minneapolis Center
02:36PM 41.4536 -93.3058 267° West 435 501 43,000  Level Minneapolis Center
02:37PM 41.4472 -93.4650 267° West 436 502 43,000  Level Minneapolis Center
02:38PM 41.4408 -93.6189 267° West 425 489 43,000  Level Minneapolis Center
02:39PM 41.4394 -93.7783 269° West 431 496 43,000  Level Minneapolis Center
02:40PM 41.4389 -93.9406 270° West 436 502 43,000  Level Minneapolis Center
02:41PM 41.4378 -94.1308 270° West 436 502 43,000  Level Minneapolis Center
02:42PM 41.4408 -94.2867 272° West 427 491 43,000  Level Minneapolis Center
02:43PM 41.4408 -94.4439 270° West 426 490 43,000  Level Minneapolis Center
02:44PM 41.4408 -94.6017 270° West 426 490 43,000  Level Minneapolis Center
02:45PM 41.4414 -94.7586 270° West 425 489 43,000  Level Minneapolis Center
02:46PM 41.4406 -94.9444 270° West 420 483 43,000  Level Minneapolis Center
02:47PM 41.4392 -95.0964 269° West 412 474 43,000  Level Minneapolis Center
02:48PM 41.4383 -95.2525 270° West 420 483 43,000  Level Minneapolis Center
02:49PM 41.4372 -95.4081 270° West 422 486 43,000  Level Minneapolis Center
02:50PM 41.4353 -95.5325 269° West 420 483 43,000  Level Minneapolis Center
02:51PM 41.4339 -95.7350 270° West 418 481 43,000  Level Minneapolis Center
02:52PM 41.4322 -95.8900 269° West 421 484 43,000  Level Minneapolis Center
02:53PM 41.4294 -96.0514 269° West 434 499 43,000  Level Minneapolis Center
02:54PM 41.4242 -96.2094 268° West 433 498 43,000  Level Minneapolis Center
02:55PM 41.4261 -96.3711 271° West 427 491 43,000  Level Minneapolis Center
02:56PM 41.4208 -96.5600 268° West 426 490 43,000  Level Minneapolis Center
02:57PM 41.4100 -96.7206 265° West 433 498 43,000  Level Minneapolis Center
02:59PM 41.3992 -96.8817 265° West 437 503 43,000  Level Minneapolis Center
03:00PM 41.3897 -97.0433 266° West 438 504 43,000  Level Minneapolis Center
03:01PM 41.3786 -97.2053 265° West 439 505 43,000  Level Minneapolis Center
03:02PM 41.3681 -97.3672 265° West 439 505 43,000  Level Minneapolis Center
03:03PM 41.3492 -97.6456 265° West 440 506 43,000  Level Denver Center
03:04PM 41.3428 -97.7228 264° West 440 506 43,000  Level Minneapolis Center
03:05PM 41.3314 -97.8836 265° West 437 503 43,000  Level Minneapolis Center
03:06PM 41.3200 -98.0408 265° West 431 496 43,000  Level Minneapolis Center
03:07PM 41.3078 -98.2044 264° West 424 488 43,000  Level Minneapolis Center
03:08PM 41.2969 -98.3589 265° West 422 486 43,000  Level Minneapolis Center
03:09PM 41.2836 -98.5361 264° West 422 486 43,000  Level Minneapolis Center
03:10PM 41.2725 -98.6900 265° West 421 484 43,000  Level Minneapolis Center
03:11PM 41.2622 -98.8464 265° West 424 488 43,000  Level Minneapolis Center
03:12PM 41.2464 -99.0003 262° West 424 488 43,000  Level Minneapolis Center
03:13PM 41.2306 -99.1839 264° West 422 486 43,000  Level Minneapolis Center
03:14PM 41.2178 -99.3375 264° West 421 484 43,000  Level Minneapolis Center
03:15PM 41.2042 -99.4906 263° West 421 484 43,000  Level Minneapolis Center
03:16PM 41.1917 -99.6433 264° West 418 481 43,000  Level Minneapolis Center
03:17PM 41.1778 -99.7961 263° West 417 480 43,000  Level Minneapolis Center
03:18PM 41.1647 -99.9492 264° West 418 481 43,000  Level Minneapolis Center
03:19PM 41.1478 -100.1303 263° West 414 476 43,000  Level Minneapolis Center
03:20PM 41.1331 -100.2853 263° West 418 481 43,000  Level Minneapolis Center
03:21PM 41.1189 -100.4375 263° West 419 482 43,000  Level Minneapolis Center
03:22PM 41.1042 -100.5897 263° West 417 480 43,000  Level Minneapolis Center
03:24PM 41.0831 -100.8203 263° West 422 486 43,000  Level Denver Center
03:25PM 41.0644 -100.9897 262° West 422 486 43,000  Level Denver Center
03:26PM 41.0489 -101.1342 262° West 419 482 43,000  Level Denver Center
03:27PM 41.0319 -101.3036 263° West 417 480 43,000  Level Denver Center
03:28PM 41.0167 -101.4500 262° West 419 482 43,000  Level Denver Center
03:29PM 40.9983 -101.6203 262° West 419 482 43,000  Level Denver Center
03:30PM 40.9825 -101.7672 262° West 421 484 43,000  Level Denver Center
03:31PM 40.9639 -101.9392 262° West 425 489 43,000  Level Denver Center
03:32PM 40.9469 -102.0867 261° West 425 489 43,000  Level Denver Center
03:33PM 40.9311 -102.2594 263° West 427 491 43,000  Level Denver Center
03:34PM 40.9119 -102.4086 260° West 430 495 43,000  Level Denver Center
03:35PM 40.8925 -102.5806 262° West 426 490 43,000  Level Denver Center
03:36PM 40.8750 -102.7297 261° West 429 494 43,000  Level Denver Center
03:37PM 40.8550 -102.9036 261° West 430 495 43,000  Level Denver Center
03:38PM 40.8369 -103.0611 261° West 428 493 43,000  Level Denver Center
03:39PM 40.8175 -103.2172 261° West 432 497 43,000  Level Denver Center
03:40PM 40.7994 -103.3708 261° West 426 490 43,000  Level Denver Center
03:41PM 40.7817 -103.5272 262° West 433 498 43,000  Level Denver Center
03:42PM 40.7614 -103.6811 260° West 428 493 43,000  Level Denver Center
03:43PM 40.7375 -103.8669 260° West 432 497 43,000  Level Denver Center
03:45PM 40.7194 -104.0197 261° West 425 489 43,000  Level Denver Center
03:46PM 40.6997 -104.1761 261° West 434 499 43,000  Level Denver Center
03:47PM 40.6794 -104.3278 260° West 424 488 43,000  Level Denver Center
03:48PM 40.6589 -104.4825 260° West 431 496 43,000  Level Denver Center
03:49PM 40.6386 -104.6383 260° West 434 499 43,000  Level Denver Center
03:50PM 40.6142 -104.8256 260° West 435 501 43,000  Level Denver Center
03:51PM 40.5922 -104.9800 259° West 433 498 43,000  Level Denver Center
03:52PM 40.5708 -105.1328 260° West 426 490 43,000  Level Denver Center
03:53PM 40.5500 -105.2853 260° West 426 490 43,000  Level Denver Center
03:54PM 40.5281 -105.4408 260° West 434 499 43,000  Level Denver Center
03:55PM 40.5022 -105.6231 259° West 429 494 43,000  Level Denver Center
03:56PM 40.4797 -105.7769 259° West 430 495 43,000  Level Denver Center
03:57PM 40.4581 -105.9317 260° West 433 498 43,000  Level Denver Center
03:58PM 40.4356 -106.0858 259° West 434 499 43,000  Level Denver Center
03:59PM 40.4125 -106.2447 259° West 428 493 43,000  Level Denver Center
04:00PM 40.3867 -106.4147 259° West 427 491 43,000  Level Denver Center
04:01PM 40.3650 -106.5603 259° West 425 489 43,000  Level Denver Center
04:02PM 40.3358 -106.7544 259° West 425 489 43,000  Level Denver Center
04:03PM 40.3144 -106.8986 259° West 423 487 43,000  Level Denver Center
04:04PM 40.2886 -107.0661 259° West 422 486 43,000  Level Denver Center
04:05PM 40.2661 -107.2086 258° West 419 482 43,000  Level Denver Center
04:06PM 40.2394 -107.3761 258° West 421 484 43,000  Level Denver Center
04:07PM 40.2164 -107.5194 258° West 422 486 43,000  Level Denver Center
04:09PM 40.1900 -107.6864 258° West 420 483 43,000  Level Denver Center
04:10PM 40.1675 -107.8292 258° West 422 486 43,000  Level Denver Center
04:11PM 40.1394 -107.9964 258° West 424 488 43,000  Level Denver Center
04:12PM 40.1158 -108.1403 258° West 424 488 43,000  Level Denver Center
04:13PM 40.0889 -108.3072 258° West 424 488 43,000  Level Denver Center
04:13PM 40.0731 -108.4031 258° West 424 488 43,000  Level Salt Lake Center
04:14PM 40.0492 -108.5458 258° West 423 487 43,000  Level Salt Lake Center
04:15PM 40.0197 -108.7117 257° West 423 487 43,000  Level Salt Lake Center
04:16PM 39.9956 -108.8539 258° West 422 486 43,000  Level Salt Lake Center
04:17PM 39.9672 -109.0192 257° West 422 486 43,000  Level Salt Lake Center
04:18PM 39.9425 -109.1619 257° West 424 488 43,000  Level Salt Lake Center
04:19PM 39.9125 -109.3269 257° West 423 487 43,000  Level Salt Lake Center
04:21PM 39.8872 -109.4686 257° West 421 484 43,000  Level Salt Lake Center
04:22PM 39.8575 -109.6331 257° West 420 483 43,000  Level Salt Lake Center
04:23PM 39.8322 -109.7750 257° West 421 484 43,000  Level Salt Lake Center
04:24PM 39.8025 -109.9389 257° West 418 481 43,000  Level Salt Lake Center
04:25PM 39.7767 -110.0781 256° West 415 478 43,000  Level Salt Lake Center
04:26PM 39.7467 -110.2417 257° West 416 479 43,000  Level Salt Lake Center
04:27PM 39.7219 -110.3825 257° West 418 481 43,000  Level Salt Lake Center
04:28PM 39.6908 -110.5458 256° West 418 481 43,000  Level Salt Lake Center
04:29PM 39.6644 -110.6858 256° West 419 482 43,000  Level Salt Lake Center
04:30PM 39.6325 -110.8517 256° West 422 486 43,000  Level Salt Lake Center
04:31PM 39.6058 -110.9919 256° West 421 484 43,000  Level Salt Lake Center
04:32PM 39.5786 -111.1308 256° West 418 481 43,000  Level Salt Lake Center
04:33PM 39.5500 -111.2817 256° West 420 483 43,000  Level Salt Lake Center
04:34PM 39.5194 -111.4283 255° West 422 486 43,000  Level Salt Lake Center
04:35PM 39.4869 -111.6053 257° West 421 484 43,000  Level Salt Lake Center
04:36PM 39.4547 -111.7528 254° West 424 488 43,000  Level Salt Lake Center
04:37PM 39.4261 -111.8994 256° West 421 484 43,000  Level Salt Lake Center
04:38PM 39.3961 -112.0456 255° West 421 484 43,000  Level Salt Lake Center
04:39PM 39.3667 -112.1925 256° West 422 486 43,000  Level Salt Lake Center
04:40PM 39.3381 -112.3425 256° West 428 493 43,000  Level Salt Lake Center
04:41PM 39.3083 -112.4883 255° West 425 489 43,000  Level Salt Lake Center
04:42PM 39.2703 -112.6553 254° West 422 486 43,000  Level Salt Lake Center
04:43PM 39.2381 -112.8006 254° West 422 486 43,000  Level Salt Lake Center
04:44PM 39.2050 -112.9469 254° West 427 491 43,000  Level Salt Lake Center
04:45PM 39.1719 -113.0933 254° West 428 493 43,000  Level Salt Lake Center
04:46PM 39.1325 -113.2703 254° West 429 494 43,000  Level Salt Lake Center
04:47PM 39.0983 -113.4119 253° West 422 486 43,000  Level Salt Lake Center
04:48PM 39.0661 -113.5567 254° West 423 487 43,000  Level Salt Lake Center
04:49PM 39.0319 -113.7022 253° West 425 489 43,000  Level Salt Lake Center
04:50PM 38.9986 -113.8475 254° West 426 490 43,000  Level Salt Lake Center
04:51PM 38.9639 -113.9936 253° West 429 494 43,000  Level Salt Lake Center
04:53PM 38.9225 -114.1681 253° West 429 494 43,000  Level Salt Lake Center
04:54PM 38.8892 -114.3133 254° West 427 491 43,000  Level Salt Lake Center
04:55PM 38.8531 -114.4617 253° West 434 499 43,000  Level Salt Lake Center
04:56PM 38.8186 -114.6069 253° West 431 496 43,000  Level Salt Lake Center
04:57PM 38.7819 -114.7556 252° West 437 503 43,000  Level Salt Lake Center
04:58PM 38.7472 -114.9025 253° West 434 499 43,000  Level Salt Lake Center
04:59PM 38.7011 -115.0808 252° West 439 505 43,000  Level Salt Lake Center
05:00PM 38.6628 -115.2300 252° West 442 509 43,000  Level Salt Lake Center
05:01PM 38.6311 -115.3636 253° West 438 504 43,000  Level Salt Lake Center
05:02PM 38.5914 -115.5300 253° West 429 494 43,000  Level Salt Lake Center
05:03PM 38.5539 -115.6781 252° West 436 502 43,000  Level Salt Lake Center
05:04PM 38.5169 -115.8231 252° West 433 498 43,000  Level Salt Lake Center
05:05PM 38.4789 -115.9706 252° West 437 503 43,000  Level Salt Lake Center
05:06PM 38.4422 -116.1144 252° West 431 496 43,000  Level Salt Lake Center
05:07PM 38.3967 -116.2914 252° West 437 503 43,000  Level Salt Lake Center
05:08PM 38.3758 -116.3681 251° West 439 505 43,000  Level Oakland Center
05:09PM 38.3372 -116.5172 252° West 434 499 43,000  Level Oakland Center
05:10PM 38.2967 -116.6711 251° West 436 502 43,000  Level Oakland Center
05:11PM 38.2617 -116.8075 252° West 428 493 43,000  Level Oakland Center
05:12PM 38.2264 -116.9453 252° West 428 493 43,000  Level Oakland Center
05:13PM 38.2158 -117.1058 265° West 437 503 43,000  Level Oakland Center
05:14PM 38.2028 -117.2578 264° West 434 499 43,000  Level Oakland Center
05:15PM 38.1894 -117.4097 264° West 434 499 43,000  Level Oakland Center
05:16PM 38.1742 -117.5922 264° West 434 499 43,000  Level Oakland Center
05:17PM 38.1600 -117.7469 263° West 437 503 43,000  Level Oakland Center
05:18PM 38.1478 -117.8942 264° West 424 488 43,000  Level Oakland Center
05:19PM 38.1336 -118.0464 263° West 430 495 43,000  Level Oakland Center
05:20PM 38.1186 -118.1986 263° West 434 499 43,000 -540 Level Oakland Center
05:21PM 38.1053 -118.3544 264° West 443 510 42,000 -1,080 Descending Oakland Center
05:22PM 38.0906 -118.5075 263° West 438 504 40,900 -1,020 Descending Oakland Center
05:23PM 38.0761 -118.6608 263° West 437 503 40,000 -1,020 Descending Oakland Center
05:24PM 38.0611 -118.8142 263° West 434 499 38,900 -1,080 Descending Oakland Center
05:25PM 38.0453 -118.9683 263° West 438 504 37,900 -1,020 Descending Oakland Center
05:26PM 38.0303 -119.1258 263° West 448 516 36,900 -960 Descending Oakland Center
05:27PM 38.0147 -119.2828 263° West 449 517 36,000 -480 Descending Oakland Center
05:28PM 37.9986 -119.4408 263° West 452 520 36,000  Level Oakland Center
05:29PM 37.9797 -119.6275 263° West 447 514 36,000  Level Oakland Center
05:30PM 37.9628 -119.7836 262° West 448 516 36,000  Level Oakland Center
05:31PM 37.9447 -119.9419 262° West 452 520 36,000 -60 Level Oakland Center
05:32PM 37.9275 -120.0992 262° West 450 518 35,900 -1,080 Descending Oakland Center
05:33PM 37.9117 -120.2547 263° West 446 513 33,900 -2,100 Descending Oakland Center
05:34PM 37.8939 -120.4083 262° West 443 510 31,600 -2,400 Descending Oakland Center
05:35PM 37.8761 -120.5656 262° West 449 517 29,100 -2,700 Descending Oakland Center
05:36PM 37.8667 -120.6667 263° West 438 504 27,400 -2,940 Descending Northern Cal TRACON
05:37PM 37.8500 -120.8167 262° West 418 481 24,600 -2,700 Descending Northern Cal TRACON
05:38PM 37.8500 -120.9500 270° West 396 456 22,100 -2,460 Descending Northern Cal TRACON
05:39PM 37.8333 -121.0833 261° West 379 436 19,700 -2,460 Descending Northern Cal TRACON
05:40PM 37.8167 -121.2167 261° West 447 514 17,200 -2,340 Descending Northern Cal TRACON
05:41PM 37.7833 -121.3333 250° West 333 383 15,100 -2,100 Descending Northern Cal TRACON
05:42PM 37.7333 -121.4333 238° Southwest 314 361 13,100 -1,980 Descending Northern Cal TRACON
05:43PM 37.6872 -121.5825 249° West 299 344 10,000 -1,860 Descending Oakland Center
05:44PM 37.6542 -121.6717 245° Southwest 287 330 8,200 -1,500 Descending Oakland Center
05:45PM 37.6333 -121.7606 254° West 285 328 7,000 -1,080 Descending Oakland Center
05:46PM 37.6428 -121.8542 277° West 274 315 6,000 -1,320 Descending Oakland Center
05:47PM 37.6511 -121.9450 277° West 265 305 4,400 -1,020 Descending Oakland Center
05:48PM 37.6661 -122.0242 283° West 251 289 4,000 -600 Descending Oakland Center
05:49PM 37.6817 -122.0753 291° West 192 221 3,200 -960 Descending Oakland Center
05:50PM 37.6947 -122.1172 291° West 156 180 2,100 -1,260 Descending Oakland Center
05:52PM 37.7097 -122.1631 292° West 131 151 700 -1,020 Descending Oakland Center
05:53PM 37.7211 -122.2000 291° West 121 139 100 -600 Descending Oakland Center
05:55PM 37.7167 -122.2167 270° West  Level FlightAware Approximate